This is the latest recevied weather packets stored in our database for station/object OH2TI. If no packets are shown the sender has not sent any weather packets the latest 10 day(s).
| Time | Temp. | Humidity | Pressure | Rain* | Wind** | Luminosity | Snow |
|---|---|---|---|---|---|---|---|
| 1777294241 | 7.22° C | 40% | 1009.7 hPa | - | - | - | - |
| 1777293594 | 6.67° C | 48% | 1010.1 hPa | - | - | - | - |
| 1777292781 | 8.33° C | 36% | 1009.8 hPa | - | - | - | - |
| 1777292061 | 7.78° C | 32% | 1009.7 hPa | - | - | - | - |
| 1777291754 | 7.78° C | 31% | 1009.6 hPa | - | - | - | - |
| 1777291351 | 8.89° C | 34% | 1009.5 hPa | - | - | - | - |
| 1777290901 | 7.78° C | 34% | 1009.7 hPa | - | - | - | - |
| 1777290061 | 7.78° C | 36% | 1009.7 hPa | - | - | - | - |
| 1777289631 | 7.78° C | 36% | 1009.6 hPa | - | - | - | - |
| 1777289314 | 8.33° C | 32% | 1009.5 hPa | - | - | - | - |
| 1777288941 | 8.33° C | 31% | 1009.3 hPa | - | - | - | - |
| 1777288471 | 8.33° C | 30% | 1009.5 hPa | - | - | - | - |
| 1777287893 | 8.33° C | 32% | 1009.5 hPa | - | - | - | - |
| 1777287241 | 7.22° C | 35% | 1009.8 hPa | - | - | - | - |
| 1777286671 | 8.33° C | 32% | 1009.8 hPa | - | - | - | - |
| 1777286284 | 8.33° C | 29% | 1009.7 hPa | - | - | - | - |
| 1777285433 | 8.33° C | 32% | 1009.9 hPa | - | - | - | - |
| 1777285111 | 7.78° C | 31% | 1009.9 hPa | - | - | - | - |
| 1777284261 | 7.78° C | 32% | 1009.9 hPa | - | - | - | - |
| 1777283453 | 7.78° C | 31% | 1009.9 hPa | - | - | - | - |
| 1777283051 | 8.33° C | 30% | 1009.9 hPa | - | - | - | - |
| 1777282636 | 7.78° C | 31% | 1010 hPa | - | - | - | - |
| 1777281971 | 7.78° C | 32% | 1009.8 hPa | - | - | - | - |
| 1777281411 | 7.78° C | 32% | 1009.9 hPa | - | - | - | - |
| 1777280528 | 7.78° C | 31% | 1009.7 hPa | - | - | - | - |
* Rain since midnight (hover to see other rain measurements)
** Current wind speed in m/s (hover to see current wind gust speed)